createdAt,value
2017-06-05T00:00:34.612Z,12.24
2017-06-05T00:01:34.602Z,12.21
2017-06-05T00:02:34.584Z,12.24
2017-06-05T00:03:34.264Z,12.24
2017-06-05T00:04:34.253Z,12.3
2017-06-05T00:05:34.635Z,12.37
2017-06-05T00:06:34.219Z,12.33
2017-06-05T00:07:34.531Z,12.38
2017-06-05T00:08:34.512Z,12.33
2017-06-05T00:09:34.498Z,12.31
2017-06-05T00:10:33.847Z,12.39
2017-06-05T00:11:33.834Z,12.37
2017-06-05T00:12:33.822Z,12.41
2017-06-05T00:13:34.442Z,12.42
2017-06-05T00:14:34.122Z,12.41
2017-06-05T00:15:34.095Z,12.33
2017-06-05T00:16:34.082Z,12.41
2017-06-05T00:17:33.754Z,12.34
2017-06-05T00:18:34.060Z,12.34
2017-06-05T00:19:34.366Z,12.33
2017-06-05T00:20:34.026Z,12.33
2017-06-05T00:21:34.218Z,12.31
2017-06-05T00:22:34.003Z,12.33
2017-06-05T00:23:34.301Z,12.39
2017-06-05T00:24:34.291Z,12.27
2017-06-05T00:25:33.962Z,12.3
2017-06-05T00:26:34.267Z,12.26
2017-06-05T00:27:34.250Z,12.33
2017-06-05T00:28:33.922Z,12.24
2017-06-05T00:29:33.908Z,12.21
2017-06-05T00:30:33.894Z,12.27
2017-06-05T00:31:33.910Z,12.21
2017-06-05T00:32:34.186Z,12.16
2017-06-05T00:33:33.921Z,12.21
2017-06-05T00:34:33.838Z,12.15
2017-06-05T00:35:33.826Z,12.11
2017-06-05T00:36:33.822Z,12.16
2017-06-05T00:37:33.798Z,12.11
2017-06-05T00:38:33.479Z,12.02
2017-06-05T00:39:33.775Z,12.09
2017-06-05T00:40:33.446Z,12.06
2017-06-05T00:41:33.746Z,12.05
2017-06-05T00:42:34.053Z,11.96
2017-06-05T00:43:33.403Z,11.96
2017-06-05T00:44:33.705Z,11.99
2017-06-05T00:45:33.692Z,11.93
2017-06-05T00:46:33.678Z,11.89
2017-06-05T00:47:33.661Z,11.96
2017-06-05T00:48:33.652Z,11.93
2017-06-05T00:49:33.320Z,11.9
2017-06-05T00:50:33.938Z,11.78
2017-06-05T00:51:33.614Z,11.93
2017-06-05T00:52:33.907Z,11.93
2017-06-05T00:53:33.582Z,11.83
2017-06-05T00:54:33.261Z,11.77
2017-06-05T00:55:33.869Z,11.82
2017-06-05T00:56:33.233Z,11.9
2017-06-05T00:57:33.213Z,11.82
2017-06-05T00:58:33.835Z,11.82
2017-06-05T00:59:33.186Z,11.85
2017-06-05T01:00:33.801Z,11.82
2017-06-05T01:01:33.159Z,11.8
2017-06-05T01:02:33.464Z,11.67
2017-06-05T01:03:33.131Z,11.77
2017-06-05T01:04:33.431Z,11.68
2017-06-05T01:05:33.103Z,11.7
2017-06-05T01:06:33.718Z,11.68
2017-06-05T01:07:33.702Z,11.72
2017-06-05T01:08:33.376Z,11.65
2017-06-05T01:09:33.366Z,11.67
2017-06-05T01:10:33.713Z,11.67
2017-06-05T01:11:33.652Z,11.67
2017-06-05T01:12:33.351Z,11.57
2017-06-05T01:13:33.624Z,11.56
2017-06-05T01:14:33.291Z,11.53
2017-06-05T01:15:33.612Z,11.53
2017-06-05T01:16:33.580Z,11.5
2017-06-05T01:17:33.257Z,11.54
2017-06-05T01:18:33.233Z,11.52
2017-06-05T01:19:33.542Z,11.5
2017-06-05T01:20:33.208Z,11.41
2017-06-05T01:21:33.199Z,11.38
2017-06-05T01:22:33.501Z,11.38
2017-06-05T01:23:33.486Z,11.38
2017-06-05T01:24:33.153Z,11.34
2017-06-05T01:25:32.826Z,11.29
2017-06-05T01:26:32.812Z,11.34
2017-06-05T01:27:33.114Z,11.31
2017-06-05T01:28:33.100Z,11.27
2017-06-05T01:29:33.090Z,11.27
2017-06-05T01:30:33.383Z,11.2
2017-06-05T01:31:33.055Z,11.25
2017-06-05T01:32:33.045Z,11.2
2017-06-05T01:33:33.344Z,11.16
2017-06-05T01:34:32.700Z,11.14
2017-06-05T01:35:33.003Z,11.16
2017-06-05T01:36:32.670Z,11.1
2017-06-05T01:37:32.660Z,11.11
2017-06-05T01:38:33.273Z,11.09
2017-06-05T01:39:32.945Z,11.01
2017-06-05T01:40:33.247Z,11.02
2017-06-05T01:41:32.599Z,11.03
2017-06-05T01:42:33.215Z,10.99
2017-06-05T01:43:33.203Z,11.03
2017-06-05T01:44:32.916Z,10.99
2017-06-05T01:45:32.861Z,10.99
2017-06-05T01:46:33.159Z,11.02
2017-06-05T01:47:32.831Z,11.02
2017-06-05T01:48:33.130Z,10.92
2017-06-05T01:49:33.118Z,10.98
2017-06-05T01:50:32.782Z,10.89
2017-06-05T01:51:33.088Z,10.91
2017-06-05T01:52:32.757Z,10.88
2017-06-05T01:53:32.742Z,10.94
2017-06-05T01:54:33.046Z,10.94
2017-06-05T01:55:32.401Z,10.94
2017-06-05T01:56:32.384Z,10.95
2017-06-05T01:57:33.000Z,10.96
2017-06-05T01:58:32.987Z,10.92
2017-06-05T01:59:32.656Z,10.98
2017-06-05T02:00:32.641Z,10.95
2017-06-05T02:01:32.941Z,11.06
2017-06-05T02:02:32.303Z,10.98
2017-06-05T02:03:32.609Z,10.95
2017-06-05T02:04:32.591Z,10.99
2017-06-05T02:05:32.567Z,11.02
2017-06-05T02:06:32.558Z,10.99
2017-06-05T02:07:32.858Z,10.98
2017-06-05T02:08:32.212Z,10.94
2017-06-05T02:09:32.513Z,10.92
2017-06-05T02:10:32.182Z,10.96
2017-06-05T02:11:32.797Z,10.92
2017-06-05T02:12:32.786Z,10.96
2017-06-05T02:13:32.455Z,10.92
2017-06-05T02:14:32.753Z,10.86
2017-06-05T02:15:32.115Z,10.88
2017-06-05T02:16:32.741Z,10.86
2017-06-05T02:17:32.419Z,10.88
2017-06-05T02:18:32.387Z,10.88
2017-06-05T02:19:32.686Z,10.89
2017-06-05T02:20:32.664Z,10.86
2017-06-05T02:21:32.540Z,10.81
2017-06-05T02:22:32.008Z,10.77
2017-06-05T02:23:32.310Z,10.83
2017-06-05T02:24:32.301Z,10.78
2017-06-05T02:25:32.017Z,10.8
2017-06-05T02:26:32.264Z,10.74
2017-06-05T02:27:32.254Z,10.7
2017-06-05T02:28:32.237Z,10.71
2017-06-05T02:29:32.537Z,10.7
2017-06-05T02:30:31.892Z,10.78
2017-06-05T02:31:32.191Z,10.68
2017-06-05T02:32:32.491Z,10.71
2017-06-05T02:33:32.160Z,10.74
2017-06-05T02:34:31.843Z,10.78
2017-06-05T02:35:32.453Z,10.77
2017-06-05T02:36:32.434Z,10.77
2017-06-05T02:37:32.109Z,10.71
2017-06-05T02:38:32.093Z,10.77
2017-06-05T02:39:32.397Z,10.68
2017-06-05T02:40:32.065Z,10.6
2017-06-05T02:41:32.046Z,10.62
2017-06-05T02:42:32.353Z,10.65
2017-06-05T02:43:31.706Z,10.66
2017-06-05T02:44:32.320Z,10.6
2017-06-05T02:45:32.309Z,10.59
2017-06-05T02:46:31.977Z,10.62
2017-06-05T02:47:31.961Z,10.73
2017-06-05T02:48:31.947Z,10.71
2017-06-05T02:49:31.933Z,10.68
2017-06-05T02:50:32.231Z,10.73
2017-06-05T02:51:31.585Z,10.74
2017-06-05T02:52:32.203Z,10.7
2017-06-05T02:53:31.876Z,10.71
2017-06-05T02:54:32.170Z,10.7
2017-06-05T02:55:32.159Z,10.76
2017-06-05T02:56:32.142Z,10.73
2017-06-05T02:57:31.814Z,10.68
2017-06-05T02:58:32.121Z,10.7
2017-06-05T02:59:31.793Z,10.65
2017-06-05T03:00:31.772Z,10.66
2017-06-05T03:01:31.755Z,10.73
2017-06-05T03:02:31.746Z,10.7
2017-06-05T03:03:31.416Z,10.66
2017-06-05T03:04:31.715Z,10.78
2017-06-05T03:05:32.016Z,10.78
2017-06-05T03:06:32.004Z,10.77
2017-06-05T03:07:31.670Z,10.74
2017-06-05T03:08:31.657Z,10.73
2017-06-05T03:09:31.345Z,10.71
2017-06-05T03:10:31.939Z,10.84
2017-06-05T03:11:31.958Z,10.8
2017-06-05T03:12:31.604Z,10.77
2017-06-05T03:13:31.578Z,10.77
2017-06-05T03:14:31.571Z,10.83
2017-06-05T03:15:31.548Z,10.78
2017-06-05T03:16:31.856Z,10.83
2017-06-05T03:17:31.519Z,10.81
2017-06-05T03:18:31.508Z,10.76
2017-06-05T03:19:31.496Z,10.77
2017-06-05T03:20:31.161Z,10.71
2017-06-05T03:21:31.463Z,10.77
2017-06-05T03:22:31.446Z,10.73
2017-06-05T03:23:31.751Z,10.71
2017-06-05T03:24:31.443Z,10.71
2017-06-05T03:25:31.732Z,10.71
2017-06-05T03:26:31.390Z,10.74
2017-06-05T03:27:31.689Z,10.81
2017-06-05T03:28:31.358Z,10.81
2017-06-05T03:29:31.343Z,10.77
2017-06-05T03:30:31.013Z,10.8
2017-06-05T03:31:31.318Z,10.78
2017-06-05T03:32:30.994Z,10.7
2017-06-05T03:33:31.036Z,10.76
2017-06-05T03:34:31.587Z,10.68
2017-06-05T03:35:31.567Z,10.71
2017-06-05T03:36:31.556Z,10.74
2017-06-05T03:37:31.596Z,10.77
2017-06-05T03:38:31.213Z,10.76
2017-06-05T03:39:31.201Z,10.83
2017-06-05T03:40:31.495Z,10.81
2017-06-05T03:41:30.856Z,10.83
2017-06-05T03:42:30.838Z,10.77
2017-06-05T03:43:31.143Z,10.81
2017-06-05T03:44:31.437Z,10.98
2017-06-05T03:45:31.109Z,10.92
2017-06-05T03:46:30.809Z,10.92
2017-06-05T03:47:31.402Z,10.91
2017-06-05T03:48:30.755Z,10.99
2017-06-05T03:49:31.049Z,10.94
2017-06-05T03:50:31.045Z,10.95
2017-06-05T03:51:31.054Z,10.96
2017-06-05T03:52:31.007Z,10.94
2017-06-05T03:53:31.315Z,10.95
2017-06-05T03:54:30.975Z,10.96
2017-06-05T03:55:31.344Z,11.01
2017-06-05T03:56:31.288Z,10.96
2017-06-05T03:57:31.300Z,11.02
2017-06-05T03:58:31.243Z,11.01
2017-06-05T03:59:31.221Z,11.07
2017-06-05T04:00:31.211Z,11.03
2017-06-05T04:01:30.878Z,11.07
2017-06-05T04:02:30.868Z,11.06
2017-06-05T04:03:31.164Z,11.03
2017-06-05T04:04:31.153Z,11.07
2017-06-05T04:05:30.506Z,11.02
2017-06-05T04:06:30.806Z,11.1
2017-06-05T04:07:31.113Z,11.14
2017-06-05T04:08:31.091Z,11.11
2017-06-05T04:09:31.078Z,11.13
2017-06-05T04:10:30.434Z,11.09
2017-06-05T04:11:31.057Z,11.17
2017-06-05T04:12:30.722Z,11.13
2017-06-05T04:13:30.706Z,11.11
2017-06-05T04:14:30.696Z,11.1
2017-06-05T04:15:30.993Z,11.21
2017-06-05T04:16:30.712Z,11.2
2017-06-05T04:17:30.652Z,11.25
2017-06-05T04:18:30.638Z,11.24
2017-06-05T04:19:30.621Z,11.28
2017-06-05T04:20:30.614Z,11.2
2017-06-05T04:21:31.130Z,11.21
2017-06-05T04:22:30.299Z,11.25
2017-06-05T04:23:30.881Z,11.28
2017-06-05T04:24:30.242Z,11.34
2017-06-05T04:25:30.865Z,11.28
2017-06-05T04:26:30.529Z,11.27
2017-06-05T04:27:30.512Z,11.24
2017-06-05T04:28:30.806Z,11.27
2017-06-05T04:29:30.478Z,11.29
2017-06-05T04:30:30.777Z,11.38
2017-06-05T04:31:30.765Z,11.36
2017-06-05T04:32:30.433Z,11.36
2017-06-05T04:33:30.428Z,11.43
2017-06-05T04:34:30.744Z,11.56
2017-06-05T04:35:30.395Z,11.49
2017-06-05T04:36:30.070Z,11.53
2017-06-05T04:37:30.367Z,11.64
2017-06-05T04:38:30.355Z,11.64
2017-06-05T04:39:30.339Z,11.68
2017-06-05T04:40:30.647Z,11.71
2017-06-05T04:41:30.312Z,11.75
2017-06-05T04:42:30.301Z,11.78
2017-06-05T04:43:30.031Z,11.8
2017-06-05T04:44:30.583Z,11.77
2017-06-05T04:45:30.568Z,11.93
2017-06-05T04:46:30.554Z,11.96
2017-06-05T04:47:30.228Z,12.01
2017-06-05T04:48:29.935Z,12.02
2017-06-05T04:49:30.515Z,12.11
2017-06-05T04:50:30.499Z,12.06
2017-06-05T04:51:30.487Z,12.11
2017-06-05T04:52:29.851Z,12.2
2017-06-05T04:53:30.144Z,12.16
2017-06-05T04:54:30.155Z,12.23
2017-06-05T04:55:30.120Z,12.23
2017-06-05T04:56:29.792Z,12.38
2017-06-05T04:57:30.091Z,12.38
2017-06-05T04:58:30.082Z,12.41
2017-06-05T04:59:30.069Z,12.38
2017-06-05T05:00:30.054Z,12.42
2017-06-05T05:01:30.038Z,12.37
2017-06-05T05:02:30.035Z,12.44
2017-06-05T05:03:30.330Z,12.41
2017-06-05T05:04:29.693Z,12.45
2017-06-05T05:05:29.994Z,12.42
2017-06-05T05:06:30.295Z,12.48
2017-06-05T05:07:29.971Z,12.46
2017-06-05T05:08:29.948Z,12.46
2017-06-05T05:09:30.246Z,12.45
2017-06-05T05:10:29.927Z,12.49
2017-06-05T05:11:29.912Z,12.52
2017-06-05T05:12:29.897Z,12.62
2017-06-05T05:13:29.586Z,12.63
2017-06-05T05:14:29.870Z,12.69
2017-06-05T05:15:29.851Z,12.66
2017-06-05T05:16:30.157Z,12.66
2017-06-05T05:17:29.829Z,12.7
2017-06-05T05:18:29.818Z,12.78
2017-06-05T05:19:30.115Z,12.87
2017-06-05T05:20:29.787Z,12.88
2017-06-05T05:21:30.097Z,12.95
2017-06-05T05:22:29.769Z,12.96
2017-06-05T05:23:29.434Z,13.03
2017-06-05T05:24:30.062Z,13.11
2017-06-05T05:25:29.727Z,13.12
2017-06-05T05:26:29.706Z,13.22
2017-06-05T05:27:29.386Z,13.29
2017-06-05T05:28:29.380Z,13.3
2017-06-05T05:29:29.990Z,13.43
2017-06-05T05:30:29.979Z,13.37
2017-06-05T05:31:29.959Z,13.44
2017-06-05T05:32:29.633Z,13.54
2017-06-05T05:33:29.623Z,13.65
2017-06-05T05:34:29.606Z,13.73
2017-06-05T05:35:29.284Z,13.71
2017-06-05T05:36:29.584Z,13.87
2017-06-05T05:37:29.880Z,13.83
2017-06-05T05:38:29.246Z,13.8
2017-06-05T05:39:29.897Z,13.81
2017-06-05T05:40:29.532Z,13.81
2017-06-05T05:41:29.833Z,13.89
2017-06-05T05:42:29.236Z,13.94
2017-06-05T05:43:29.184Z,13.94
2017-06-05T05:44:29.489Z,14.01
2017-06-05T05:45:29.466Z,14.12
2017-06-05T05:46:29.463Z,14.1
2017-06-05T05:47:29.447Z,14.12
2017-06-05T05:48:29.748Z,14.27
2017-06-05T05:49:29.109Z,14.32
2017-06-05T05:50:29.738Z,14.28
2017-06-05T05:51:29.716Z,14.38
2017-06-05T05:52:29.701Z,14.42
2017-06-05T05:53:29.700Z,14.47
2017-06-05T05:54:29.674Z,14.39
2017-06-05T05:55:29.350Z,14.49
2017-06-05T05:56:29.339Z,14.5
2017-06-05T05:57:29.324Z,14.49
2017-06-05T05:58:29.627Z,14.5
2017-06-05T05:59:29.310Z,14.52
2017-06-05T06:00:29.290Z,14.6
2017-06-05T06:01:29.278Z,14.5
2017-06-05T06:02:29.272Z,14.67
2017-06-05T06:03:29.259Z,14.69
2017-06-05T06:04:29.561Z,14.71
2017-06-05T06:05:29.554Z,14.69
2017-06-05T06:06:29.226Z,14.74
2017-06-05T06:07:28.896Z,14.78
2017-06-05T06:08:28.885Z,14.86
2017-06-05T06:09:29.186Z,14.9
2017-06-05T06:10:29.175Z,14.84
2017-06-05T06:11:29.159Z,14.87
2017-06-05T06:12:29.158Z,14.88
2017-06-05T06:13:29.150Z,14.99
2017-06-05T06:14:29.451Z,14.9
2017-06-05T06:15:29.426Z,14.93
2017-06-05T06:16:29.109Z,15.02
2017-06-05T06:17:29.102Z,15.08
2017-06-05T06:18:29.085Z,15.05
2017-06-05T06:19:29.071Z,15.06
2017-06-05T06:20:29.377Z,15.12
2017-06-05T06:21:29.566Z,15.06
2017-06-05T06:22:28.724Z,15.11
2017-06-05T06:23:29.343Z,15.13
2017-06-05T06:24:29.048Z,15.19
2017-06-05T06:25:29.320Z,15.28
2017-06-05T06:26:28.998Z,15.23
2017-06-05T06:27:28.670Z,15.21
2017-06-05T06:28:28.973Z,15.27
2017-06-05T06:29:28.963Z,15.36
2017-06-05T06:30:28.950Z,15.42
2017-06-05T06:31:29.254Z,15.39
2017-06-05T06:32:28.613Z,15.35
2017-06-05T06:33:29.228Z,15.38
2017-06-05T06:34:29.223Z,15.42
2017-06-05T06:35:29.205Z,15.31
2017-06-05T06:36:29.208Z,15.42
2017-06-05T06:37:28.900Z,15.51
2017-06-05T06:38:29.187Z,15.49
2017-06-05T06:39:28.852Z,15.54
2017-06-05T06:40:29.146Z,15.54
2017-06-05T06:41:28.514Z,15.59
2017-06-05T06:42:29.129Z,15.52
2017-06-05T06:43:28.809Z,15.61
2017-06-05T06:44:28.476Z,15.68
2017-06-05T06:45:28.468Z,15.63
2017-06-05T06:46:28.770Z,15.72
2017-06-05T06:47:29.076Z,15.85
2017-06-05T06:48:29.116Z,15.93
2017-06-05T06:49:29.063Z,16.4
2017-06-05T06:50:28.733Z,16.88
2017-06-05T06:51:28.408Z,17.35
2017-06-05T06:52:28.716Z,17.73
2017-06-05T06:53:28.707Z,17.71
2017-06-05T06:54:28.689Z,17.73
2017-06-05T06:55:28.684Z,17.84
2017-06-05T06:56:28.353Z,18.12
2017-06-05T06:57:28.346Z,18.49
2017-06-05T06:58:28.656Z,18.72
2017-06-05T06:59:28.328Z,19.13
2017-06-05T07:00:28.943Z,19.42
2017-06-05T07:01:28.613Z,19.68
2017-06-05T07:02:28.919Z,20.08
2017-06-05T07:03:28.600Z,20.18
2017-06-05T07:04:28.902Z,20.27
2017-06-05T07:05:28.582Z,20.28
2017-06-05T07:06:28.566Z,20.42
2017-06-05T07:07:28.877Z,20.69
2017-06-05T07:08:28.864Z,20.83
2017-06-05T07:09:28.853Z,20.96
2017-06-05T07:10:28.527Z,20.98
2017-06-05T07:11:28.209Z,21.09
2017-06-05T07:12:28.825Z,21.23
2017-06-05T07:13:28.819Z,21.23
2017-06-05T07:14:28.811Z,21.24
2017-06-05T07:15:28.169Z,21.24
2017-06-05T07:16:28.177Z,21.27
2017-06-05T07:17:28.796Z,21.24
2017-06-05T07:18:28.782Z,21.09
2017-06-05T07:19:28.773Z,21.23
2017-06-05T07:20:28.456Z,21.21
2017-06-05T07:21:28.453Z,21.21
2017-06-05T07:22:28.439Z,21.29
2017-06-05T07:23:28.757Z,21.35
2017-06-05T07:24:28.110Z,21.11
2017-06-05T07:25:28.737Z,20.93
2017-06-05T07:26:28.730Z,20.8
2017-06-05T07:27:28.098Z,20.65
2017-06-05T07:28:28.402Z,20.61
2017-06-05T07:29:28.799Z,20.61
2017-06-05T07:30:28.407Z,20.62
2017-06-05T07:31:28.427Z,20.81
2017-06-05T07:32:28.375Z,21.01
2017-06-05T07:33:28.688Z,21.11
2017-06-05T07:34:28.583Z,21.27
2017-06-05T07:35:28.378Z,21.38
2017-06-05T07:36:28.057Z,21.59
2017-06-05T07:37:28.668Z,21.64
2017-06-05T07:38:28.670Z,21.75
2017-06-05T07:39:28.658Z,21.71
2017-06-05T07:40:28.333Z,21.74
2017-06-05T07:41:28.330Z,21.74
2017-06-05T07:42:28.016Z,21.88
2017-06-05T07:43:28.639Z,22.06
2017-06-05T07:44:28.619Z,22.35
2017-06-05T07:45:28.616Z,22.54
2017-06-05T07:46:27.983Z,22.68
2017-06-05T07:47:27.980Z,22.74
2017-06-05T07:48:28.605Z,22.87
2017-06-05T07:49:28.596Z,23.07
2017-06-05T07:50:28.281Z,23.05
2017-06-05T07:51:28.273Z,23.45
2017-06-05T07:52:28.582Z,23.86
2017-06-05T07:53:28.627Z,24.14
2017-06-05T07:54:28.260Z,24.24
2017-06-05T07:55:28.339Z,24.41
2017-06-05T07:56:28.282Z,24.38
2017-06-05T07:57:27.927Z,24.42
2017-06-05T07:58:28.567Z,24.42
2017-06-05T07:59:28.550Z,24.41
2017-06-05T08:00:27.918Z,24.53
2017-06-05T08:01:28.544Z,24.75
2017-06-05T08:02:28.222Z,24.98
2017-06-05T08:03:28.221Z,24.91
2017-06-05T08:04:28.213Z,24.92
2017-06-05T08:05:28.530Z,24.61
2017-06-05T08:06:28.521Z,24.73
2017-06-05T08:07:28.205Z,24.82
2017-06-05T08:08:28.201Z,24.94
2017-06-05T08:09:28.196Z,25.1
2017-06-05T08:10:28.189Z,25.06
2017-06-05T08:11:27.873Z,25.1
2017-06-05T08:12:28.187Z,25.16
2017-06-05T08:13:28.499Z,25.31
2017-06-05T08:14:28.174Z,25.17
2017-06-05T08:15:28.490Z,25.12
2017-06-05T08:16:28.491Z,25.19
2017-06-05T08:17:27.854Z,25.05
2017-06-05T08:18:28.196Z,24.83
2017-06-05T08:19:28.476Z,24.82
2017-06-05T08:20:27.894Z,24.79
2017-06-05T08:21:28.883Z,24.54
2017-06-05T08:22:27.837Z,24.47
2017-06-05T08:23:28.154Z,24.44
2017-06-05T08:24:28.149Z,24.34
2017-06-05T08:25:28.144Z,24.05
2017-06-05T08:26:28.138Z,23.98
2017-06-05T08:27:28.138Z,23.86
2017-06-05T08:28:28.129Z,23.92
2017-06-05T08:29:27.822Z,23.89
2017-06-05T08:30:27.812Z,23.79
2017-06-05T08:31:28.434Z,23.82
2017-06-05T08:32:28.118Z,23.52
2017-06-05T08:33:28.424Z,23.62
2017-06-05T08:34:27.793Z,23.89
2017-06-05T08:35:28.471Z,24.44
2017-06-05T08:36:28.106Z,24.77
2017-06-05T08:37:28.100Z,24.82
2017-06-05T08:38:28.092Z,24.63
2017-06-05T08:39:28.406Z,24.6
2017-06-05T08:40:28.091Z,24.83
2017-06-05T08:41:28.083Z,25.09
2017-06-05T08:42:27.770Z,25.61
2017-06-05T08:43:28.397Z,26.17
2017-06-05T08:44:27.797Z,26.22
2017-06-05T08:45:28.077Z,26.44
2017-06-05T08:46:28.087Z,26.31
2017-06-05T08:47:28.388Z,26.29
2017-06-05T08:48:28.065Z,26.22
2017-06-05T08:49:28.081Z,26.28
2017-06-05T08:50:28.114Z,26.15
2017-06-05T08:51:28.378Z,25.87
2017-06-05T08:52:28.375Z,25.59
2017-06-05T08:53:28.061Z,25.32
2017-06-05T08:54:28.063Z,24.92
2017-06-05T08:55:28.377Z,24.57
2017-06-05T08:56:28.373Z,24.32
2017-06-05T08:57:28.057Z,24.1
2017-06-05T08:58:27.734Z,24.05
2017-06-05T08:59:28.081Z,23.87
2017-06-05T09:00:27.730Z,23.64
2017-06-05T09:01:27.750Z,23.45
2017-06-05T09:02:28.351Z,23.29
2017-06-05T09:03:28.358Z,23.26
2017-06-05T09:04:28.343Z,23.08
2017-06-05T09:05:28.341Z,22.64
2017-06-05T09:06:28.332Z,22.41
2017-06-05T09:07:28.331Z,22.37
2017-06-05T09:08:27.728Z,22.34
2017-06-05T09:09:28.013Z,22.14
2017-06-05T09:10:28.009Z,22.2
2017-06-05T09:11:28.316Z,22.09
2017-06-05T09:12:27.996Z,22.12
2017-06-05T09:13:28.316Z,22.06
2017-06-05T09:14:27.990Z,22.1
2017-06-05T09:15:28.302Z,22.13
2017-06-05T09:16:27.987Z,22.35
2017-06-05T09:17:28.294Z,22.59
2017-06-05T09:18:28.283Z,22.75
2017-06-05T09:19:27.967Z,22.89
2017-06-05T09:20:27.969Z,22.8
2017-06-05T09:21:27.965Z,23.08
2017-06-05T09:22:27.970Z,23.31
2017-06-05T09:23:28.038Z,23.87
2017-06-05T09:24:27.959Z,24.12
2017-06-05T09:25:28.263Z,24.38
2017-06-05T09:26:28.262Z,24.6
2017-06-05T09:27:27.951Z,24.69
2017-06-05T09:28:28.260Z,24.63
2017-06-05T09:29:27.944Z,24.56
2017-06-05T09:30:28.256Z,24.54
2017-06-05T09:31:28.256Z,24.44
2017-06-05T09:32:28.255Z,24.6
2017-06-05T09:33:28.258Z,24.79
2017-06-05T09:34:28.248Z,24.92
2017-06-05T09:35:28.252Z,24.85
2017-06-05T09:36:27.924Z,25.06
2017-06-05T09:37:27.927Z,25.3
2017-06-05T09:38:28.129Z,25.22
2017-06-05T09:39:28.233Z,25.27
2017-06-05T09:40:27.602Z,25.06
2017-06-05T09:41:27.603Z,24.97
2017-06-05T09:42:27.601Z,24.97
2017-06-05T09:43:27.933Z,24.57
2017-06-05T09:44:28.228Z,24.5
2017-06-05T09:45:27.908Z,24.53
2017-06-05T09:46:28.222Z,24.83
2017-06-05T09:47:27.595Z,24.53
2017-06-05T09:48:28.224Z,24.44
2017-06-05T09:49:28.240Z,24.5
2017-06-05T09:50:28.228Z,24.68
2017-06-05T09:51:27.595Z,25.05
2017-06-05T09:52:27.914Z,25.19
2017-06-05T09:53:27.590Z,25.47
2017-06-05T09:54:28.219Z,25.84
2017-06-05T09:55:28.227Z,26.04
2017-06-05T09:56:28.220Z,26.31
2017-06-05T09:57:27.592Z,26.25
2017-06-05T09:58:27.907Z,26.31
2017-06-05T09:59:28.220Z,26.44
2017-06-05T10:00:27.909Z,26.39
2017-06-05T10:01:27.911Z,26.46
2017-06-05T10:02:28.277Z,26.77
2017-06-05T10:03:28.227Z,26.8
2017-06-05T10:04:28.225Z,27.17
2017-06-05T10:05:28.230Z,27.36
2017-06-05T10:06:27.921Z,27.57
2017-06-05T10:07:27.980Z,27.61
2017-06-05T10:08:27.921Z,27.64
2017-06-05T10:09:27.615Z,27.76
2017-06-05T10:10:27.977Z,27.85
2017-06-05T10:11:27.937Z,28.13
2017-06-05T10:12:27.929Z,27.88
2017-06-05T10:13:27.935Z,27.64
2017-06-05T10:14:27.936Z,27.76
2017-06-05T10:15:28.251Z,27.31
2017-06-05T10:16:28.254Z,27.16
2017-06-05T10:17:28.257Z,27.31
2017-06-05T10:18:27.956Z,27.64
2017-06-05T10:19:27.959Z,27.77
2017-06-05T10:20:28.271Z,27.88
2017-06-05T10:21:28.274Z,28.07
2017-06-05T10:22:27.953Z,28.25
2017-06-05T10:23:28.300Z,28.33
2017-06-05T10:24:27.659Z,28.58
2017-06-05T10:25:27.992Z,28.75
2017-06-05T10:26:27.659Z,28.73
2017-06-05T10:27:28.283Z,28.73
2017-06-05T10:28:27.976Z,28.66
2017-06-05T10:29:28.286Z,28.6
2017-06-05T10:30:27.664Z,28.66
2017-06-05T10:31:27.992Z,28.43
2017-06-05T10:32:28.308Z,28.59
2017-06-05T10:33:27.992Z,28.73
2017-06-05T10:34:27.687Z,29.06
2017-06-05T10:35:28.001Z,29.52
2017-06-05T10:36:28.012Z,29.31
2017-06-05T10:37:27.723Z,29.35
2017-06-05T10:38:28.323Z,29.2
2017-06-05T10:39:28.345Z,29.34
2017-06-05T10:40:28.017Z,29.2
2017-06-05T10:41:28.020Z,29.35
2017-06-05T10:42:28.023Z,29.66
2017-06-05T10:43:28.337Z,29.9
2017-06-05T10:44:28.028Z,29.72
2017-06-05T10:45:28.032Z,29.9
2017-06-05T10:46:28.039Z,29.97
2017-06-05T10:47:28.043Z,29.93
2017-06-05T10:48:27.731Z,29.9
2017-06-05T10:49:27.732Z,29.97
2017-06-05T10:50:28.050Z,29.62
2017-06-05T10:51:28.064Z,29.56
2017-06-05T10:52:28.066Z,29.81
2017-06-05T10:53:28.392Z,29.71
2017-06-05T10:54:28.063Z,29.74
2017-06-05T10:55:28.118Z,29.87
2017-06-05T10:56:28.073Z,29.96
2017-06-05T10:57:28.392Z,29.96
2017-06-05T10:58:28.421Z,29.87
2017-06-05T10:59:28.451Z,30.02
2017-06-05T11:00:28.086Z,30.12
2017-06-05T11:01:27.775Z,30.3
2017-06-05T11:02:28.415Z,30.08
2017-06-05T11:03:28.098Z,29.92
2017-06-05T11:04:28.108Z,29.84
2017-06-05T11:05:28.417Z,29.89
2017-06-05T11:06:28.123Z,30.11
2017-06-05T11:07:28.112Z,30.09
2017-06-05T11:08:28.121Z,29.71
2017-06-05T11:09:28.124Z,29.52
2017-06-05T11:10:27.807Z,29.59
2017-06-05T11:11:27.822Z,29.57
2017-06-05T11:12:28.133Z,29.68
2017-06-05T11:13:28.454Z,29.75
2017-06-05T11:14:27.826Z,29.68
2017-06-05T11:15:28.465Z,29.55
2017-06-05T11:16:28.467Z,29.16
2017-06-05T11:17:28.165Z,29.04
2017-06-05T11:18:28.154Z,29.16
2017-06-05T11:19:28.167Z,28.77
2017-06-05T11:20:28.229Z,28.7
2017-06-05T11:21:27.856Z,28.69
2017-06-05T11:22:28.230Z,28.78
2017-06-05T11:23:28.172Z,28.7
2017-06-05T11:24:28.175Z,29.01
2017-06-05T11:25:28.494Z,29.22
2017-06-05T11:26:27.870Z,29.06
2017-06-05T11:27:27.871Z,28.96
2017-06-05T11:28:28.198Z,28.73
2017-06-05T11:29:28.508Z,28.58
2017-06-05T11:30:28.199Z,28.4
2017-06-05T11:31:28.515Z,28.53
2017-06-05T11:32:28.524Z,28.4
2017-06-05T11:33:28.209Z,28.4
2017-06-05T11:34:28.214Z,28.46
2017-06-05T11:35:27.905Z,28.59
2017-06-05T11:36:28.222Z,28.68
2017-06-05T11:37:28.224Z,28.63
2017-06-05T11:38:28.541Z,28.7
2017-06-05T11:39:28.225Z,28.97
2017-06-05T11:40:28.549Z,29.22
2017-06-05T11:41:28.250Z,29.56
2017-06-05T11:42:28.556Z,29.7
2017-06-05T11:43:27.928Z,29.92
2017-06-05T11:44:28.252Z,30.3
2017-06-05T11:45:28.572Z,30.43
2017-06-05T11:46:28.576Z,30.69
2017-06-05T11:47:28.587Z,31.18
2017-06-05T11:48:28.319Z,31.23
2017-06-05T11:49:28.270Z,31.28
2017-06-05T11:50:28.587Z,31.28
2017-06-05T11:51:28.274Z,31.06
2017-06-05T11:52:28.290Z,30.76
2017-06-05T11:53:28.606Z,30.69
2017-06-05T11:54:28.612Z,30.3
2017-06-05T11:55:28.607Z,30.38
2017-06-05T11:56:28.621Z,30.64
2017-06-05T11:57:28.309Z,30.56
2017-06-05T11:58:28.677Z,30.59
2017-06-05T11:59:28.627Z,30.68
2017-06-05T12:00:28.632Z,30.54
2017-06-05T12:01:28.320Z,30.43
2017-06-05T12:02:28.008Z,30.61
2017-06-05T12:03:28.012Z,30.54
2017-06-05T12:04:28.336Z,30.81
2017-06-05T12:05:28.651Z,30.65
2017-06-05T12:06:28.655Z,30.68
2017-06-05T12:07:28.346Z,30.78
2017-06-05T12:08:28.036Z,30.69
2017-06-05T12:09:28.356Z,30.84
2017-06-05T12:10:28.672Z,30.94
2017-06-05T12:11:28.681Z,31.15
2017-06-05T12:12:28.059Z,31.24
2017-06-05T12:13:28.372Z,31.3
2017-06-05T12:14:28.734Z,31.49
2017-06-05T12:15:28.377Z,31.7
2017-06-05T12:16:28.697Z,31.7
2017-06-05T12:17:28.701Z,31.36
2017-06-05T12:18:28.396Z,31.23
2017-06-05T12:19:28.712Z,31.18
2017-06-05T12:20:28.401Z,31.24
2017-06-05T12:21:28.092Z,31.31
2017-06-05T12:22:28.614Z,31.2
2017-06-05T12:23:28.102Z,30.64
2017-06-05T12:24:28.417Z,30.15
2017-06-05T12:25:28.425Z,30.34
2017-06-05T12:26:28.437Z,30.57
2017-06-05T12:27:28.750Z,30.8
2017-06-05T12:28:28.759Z,30.49
2017-06-05T12:29:28.444Z,30.54
2017-06-05T12:30:28.760Z,30
2017-06-05T12:31:28.454Z,30
2017-06-05T12:32:28.482Z,29.97
2017-06-05T12:33:28.456Z,29.94
2017-06-05T12:34:28.799Z,29.81
2017-06-05T12:35:28.779Z,30.12
2017-06-05T12:36:28.786Z,30.31
2017-06-05T12:37:28.472Z,30.57
2017-06-05T12:38:28.797Z,30.78
2017-06-05T12:39:28.799Z,30.26
2017-06-05T12:40:28.170Z,29.56
2017-06-05T12:41:28.194Z,28.4
2017-06-05T12:42:28.494Z,27.85
2017-06-05T12:43:28.494Z,27.38
2017-06-05T12:44:28.505Z,27.67
2017-06-05T12:45:28.185Z,28.04
2017-06-05T12:46:28.843Z,28.31
2017-06-05T12:47:28.522Z,28.63
2017-06-05T12:48:28.199Z,28.82
2017-06-05T12:49:28.832Z,29.01
2017-06-05T12:50:28.514Z,29.26
2017-06-05T12:51:28.517Z,29.22
2017-06-05T12:52:28.522Z,29.4
2017-06-05T12:53:28.522Z,29.55
2017-06-05T12:54:28.890Z,29.82
2017-06-05T12:55:28.531Z,30.08